Waterloo Airport
CYKF : now visible

Airfield :











YOU CAN JOIN US ON...

 
LOGIN :

Register | Disclaimer

   EN    FR    IT 

 









Legend :    VFR   Marginal VFR   IFR   Intensive IFR   Very Intensive IFR
Visi :
Ceiling :
>= 8 km
>= 3000ft
5 to 8 km
1000 to 3000 ft
1500m to 5 km
500 to 1000 ft
800 to 1500m
200 to 500 ft
< 800m
< 200 ft
Symbols :   Thunderstorms  Fog  Heavy snow  Heavy precipitations  Wind > 20 kt






- Airport Elevation : 1054 ft
- IATA code : YKF


CYKF - Waterloo

CURRENT METAR :
  • 250937Z AUTO 00000KT 3/8SM FG CLR 11/11 A3002 RMK SLP164

EXPIRED METARs :
  • 250916Z AUTO 00000KT 1/2SM FG CLR 11/11 A3001 RMK SLP161
  • 250908Z AUTO 00000KT 3/8SM FG CLR 11/11 A3001 RMK SLP161
  • 250836Z AUTO 16002KT 1 3/4SM BR CLR 12/12 A3000 RMK SLP158
  • 250823Z AUTO 00000KT 1 1/2SM BR CLR 12/12 A3000 RMK SLP157
  • 250800Z AUTO 19003KT 8SM CLR 13/13 A2999 RMK SLP155
  • 250759Z AUTO 19003KT 7SM CLR 13/13 A2999 RMK SLP155
  • 250745Z AUTO 00000KT 3SM BR CLR 13/13 A2999 RMK VIS VRB 1-3 SLP155
  • 250740Z AUTO 20002KT 1 3/4SM BR CLR 13/13 A2999 RMK VIS VRB 1-3 SLP155
  • 250700Z AUTO 00000KT 9SM OVC150 14/13 A3000 RMK SLP157

TAF TAF CYKF
Valid from the 25 at 08:00 until the 25 at 20:00 UTC


250738Z 2508/2520 VRB03KT 11/2SM BR SKC
TEMPO 2508/2513 3SM BR
PROB30 2508/2513 1/2SM FG
FM251300 VRB03KT 21/2SM BR SKC
BECMG 2513/2514 P6SM NSW
FM251400 VRB03KT P6SM FEW030
BECMG 2515/2517 20008KT RMK FCST BASED ON AUTO OBS. NXT FCST BY 251400Z
CZYZ FIR / North America



MET'MAP, your aeronautical weather chart ! - Copyright ORBIFLY December 2007 - Disclaimer

ORBIFLY MET'MAP TEAM :

Programming & Development : Alexandra Zaïnal
Concept & original design : Baudouin d'Aumeries
Assistance for programming : Marc-Olivier Méhu
Technical & hardware support : Manuel Goepfert

Contact : metmap@orbifly.com




SOURCES & CREDITS :

   NOAA       Earth
Advisory